createdAt,value
2022-10-05T00:02:18.360Z,100027.63
2022-10-05T00:05:21.507Z,100026.06
2022-10-05T00:08:16.585Z,100031.28
2022-10-05T00:11:04.013Z,100035.94
2022-10-05T00:13:52.812Z,100038.56
2022-10-05T00:16:40.473Z,100030.94
2022-10-05T00:19:33.722Z,100033.78
2022-10-05T00:22:24.621Z,100027.19
2022-10-05T00:25:17.794Z,100027.41
2022-10-05T00:28:16.123Z,100021.88
2022-10-05T00:31:16.926Z,100024.94
2022-10-05T00:34:04.440Z,100027.22
2022-10-05T00:36:51.596Z,100031.28
2022-10-05T00:39:40.595Z,100017.91
2022-10-05T00:42:42.066Z,100025.16
2022-10-05T00:45:33.080Z,100023.78
2022-10-05T00:48:32.656Z,100016.41
2022-10-05T00:51:27.300Z,100011.41
2022-10-05T00:54:26.418Z,100010.66
2022-10-05T01:02:25.298Z,100003.56
2022-10-05T01:05:24.312Z,99997.00
2022-10-05T01:08:24.077Z,99987.03
2022-10-05T01:11:17.408Z,99985.06
2022-10-05T01:14:14.285Z,99976.94
2022-10-05T01:17:09.653Z,99979.75
2022-10-05T01:20:25.270Z,99978.97
2022-10-05T01:23:53.546Z,99988.34
2022-10-05T01:27:07.029Z,99986.56
2022-10-05T01:30:03.049Z,99991.78
2022-10-05T01:32:57.120Z,99969.31
2022-10-05T01:35:54.757Z,99981.78
2022-10-05T01:38:50.317Z,99986.91
2022-10-05T01:41:48.047Z,99990.41
2022-10-05T01:44:42.267Z,99994.94
2022-10-05T01:47:43.125Z,100001.41
2022-10-05T01:50:42.637Z,100006.84
2022-10-05T01:53:41.492Z,100005.69
2022-10-05T01:56:37.649Z,99999.31
2022-10-05T01:59:37.972Z,100001.59
2022-10-05T02:02:27.299Z,100001.59
2022-10-05T02:05:22.459Z,99998.53
2022-10-05T02:08:16.909Z,100002.94
2022-10-05T02:11:10.121Z,100003.97
2022-10-05T02:14:01.133Z,99996.38
2022-10-05T02:16:52.741Z,99995.19
2022-10-05T02:19:44.072Z,100010.03
2022-10-05T02:22:42.416Z,99998.59
2022-10-05T02:25:35.487Z,99987.94
2022-10-05T02:28:28.995Z,99981.94
2022-10-05T02:31:21.265Z,99965.50
2022-10-05T02:34:25.782Z,99965.72
2022-10-05T02:37:30.564Z,99962.53
2022-10-05T02:40:36.856Z,99952.00
2022-10-05T02:43:38.962Z,99945.63
2022-10-05T02:46:37.907Z,99933.84
2022-10-05T02:49:32.070Z,99936.47
2022-10-05T02:52:28.085Z,99938.47
2022-10-05T02:55:21.299Z,99935.50
2022-10-05T02:58:15.221Z,99938.59
2022-10-05T03:01:12.960Z,99940.16
2022-10-05T03:04:15.067Z,99946.19
2022-10-05T03:07:13.436Z,99935.63
2022-10-05T03:10:09.203Z,99935.72
2022-10-05T03:13:05.024Z,99934.00
2022-10-05T03:16:22.263Z,99934.88
2022-10-05T03:19:27.110Z,99921.06
2022-10-05T03:22:26.006Z,99924.66
2022-10-05T03:25:48.424Z,99917.28
2022-10-05T03:28:50.580Z,99922.16
2022-10-05T03:31:48.104Z,99907.75
2022-10-05T03:34:43.418Z,99912.97
2022-10-05T03:37:40.487Z,99925.19
2022-10-05T03:40:35.267Z,99915.56
2022-10-05T03:43:53.082Z,99923.81
2022-10-05T03:47:04.120Z,99933.66
2022-10-05T03:50:18.573Z,99937.28
2022-10-05T03:53:13.518Z,99938.44
2022-10-05T03:56:09.228Z,99931.19
2022-10-05T03:59:05.537Z,99941.97
2022-10-05T04:02:01.955Z,99941.53
2022-10-05T04:04:58.022Z,99944.00
2022-10-05T04:07:58.389Z,99940.00
2022-10-05T04:10:51.635Z,99946.81
2022-10-05T04:13:49.031Z,99941.25
2022-10-05T04:16:58.095Z,99935.69
2022-10-05T04:20:11.460Z,99928.88
2022-10-05T04:23:31.058Z,99946.91
2022-10-05T04:26:53.296Z,99941.78
2022-10-05T04:33:01.139Z,99949.59
2022-10-05T04:40:34.878Z,99937.44
2022-10-05T04:43:49.502Z,99941.63
2022-10-05T04:47:26.229Z,99946.19
2022-10-05T04:55:16.691Z,99937.88
2022-10-05T04:58:36.782Z,99929.50
2022-10-05T05:02:40.068Z,99948.88
2022-10-05T05:06:15.395Z,99942.75
2022-10-05T05:10:26.656Z,99952.34
2022-10-05T05:15:08.278Z,99947.44
2022-10-05T05:19:07.510Z,99958.09
2022-10-05T05:32:16.459Z,99960.94
2022-10-05T05:36:02.223Z,99978.94
2022-10-05T05:39:19.890Z,99983.28
2022-10-05T05:42:46.930Z,99989.31
2022-10-05T05:46:51.105Z,100002.69
2022-10-05T05:54:56.499Z,99994.13
2022-10-05T06:07:04.857Z,100007.78
2022-10-05T06:10:44.687Z,100009.31
2022-10-05T06:14:41.822Z,100010.50
2022-10-05T06:26:13.085Z,100008.06
2022-10-05T06:29:14.462Z,100017.94
2022-10-05T06:36:38.138Z,100012.81
2022-10-05T06:40:33.334Z,100022.56
2022-10-05T06:44:14.806Z,100010.34
2022-10-05T06:47:33.322Z,100020.91
2022-10-05T06:51:05.457Z,100014.94
2022-10-05T06:53:58.474Z,100011.81
2022-10-05T06:56:40.857Z,100021.25
2022-10-05T06:59:23.149Z,100017.94
2022-10-05T07:02:03.042Z,100005.72
2022-10-05T07:04:50.941Z,100012.00
2022-10-05T07:07:30.197Z,100009.44
2022-10-05T07:10:20.509Z,100005.47
2022-10-05T07:13:08.279Z,100000.38
2022-10-05T07:15:46.460Z,100003.69
2022-10-05T07:18:41.484Z,100000.19
2022-10-05T07:21:28.962Z,99992.22
2022-10-05T07:24:14.159Z,99994.63
2022-10-05T07:26:48.220Z,99992.25
2022-10-05T07:29:30.806Z,99994.94
2022-10-05T07:32:12.474Z,100011.88
2022-10-05T07:34:56.984Z,100004.28
2022-10-05T07:37:57.925Z,100002.91
2022-10-05T07:40:41.753Z,100002.19
2022-10-05T07:43:35.913Z,100014.34
2022-10-05T07:46:30.116Z,100003.66
2022-10-05T07:49:08.553Z,100003.78
2022-10-05T07:51:42.248Z,100004.09
2022-10-05T07:54:22.991Z,99998.75
2022-10-05T07:57:07.788Z,100012.56
2022-10-05T07:59:46.008Z,100011.50
2022-10-05T08:02:25.063Z,100011.47
2022-10-05T08:07:52.345Z,100001.63
2022-10-05T08:10:32.531Z,100008.09
2022-10-05T08:13:19.955Z,100006.09
2022-10-05T08:15:58.978Z,100009.59
2022-10-05T08:18:55.310Z,100003.44
2022-10-05T08:21:37.114Z,99998.84
2022-10-05T08:24:31.910Z,99988.59
2022-10-05T08:27:08.426Z,99981.06
2022-10-05T08:29:53.377Z,99982.25
2022-10-05T08:32:37.117Z,99980.50
2022-10-05T08:35:27.064Z,99971.69
2022-10-05T08:38:14.957Z,99967.28
2022-10-05T08:41:46.073Z,99966.00
2022-10-05T08:45:48.465Z,99966.28
2022-10-05T08:49:30.619Z,99963.66
2022-10-05T09:02:38.542Z,99971.34
2022-10-05T09:06:18.451Z,99961.41
2022-10-05T09:09:24.067Z,99962.81
2022-10-05T09:12:34.641Z,99957.78
2022-10-05T09:15:28.709Z,99962.53
2022-10-05T09:19:00.739Z,99949.34
2022-10-05T09:21:45.375Z,99960.63
2022-10-05T09:24:29.520Z,99964.50
2022-10-05T09:27:10.063Z,99961.28
2022-10-05T09:30:27.007Z,99960.72
2022-10-05T09:33:59.010Z,99974.34
2022-10-05T09:37:21.227Z,99959.94
2022-10-05T09:40:49.388Z,99962.97
2022-10-05T09:44:24.996Z,99957.78
2022-10-05T09:47:25.918Z,99951.28
2022-10-05T09:50:19.569Z,99958.88
2022-10-05T09:53:09.459Z,99956.13
2022-10-05T09:56:14.875Z,99947.31
2022-10-05T09:59:32.195Z,99946.41
2022-10-05T10:02:29.179Z,99943.16
2022-10-05T10:06:12.789Z,99937.81
2022-10-05T10:09:00.280Z,99943.00
2022-10-05T10:11:45.637Z,99942.91
2022-10-05T10:15:09.369Z,99935.91
2022-10-05T10:18:04.739Z,99932.63
2022-10-05T10:20:56.273Z,99923.25
2022-10-05T10:23:39.664Z,99934.50
2022-10-05T10:26:56.417Z,99936.03
2022-10-05T10:29:52.339Z,99929.56
2022-10-05T10:32:43.429Z,99939.81
2022-10-05T10:35:36.107Z,99929.41
2022-10-05T10:38:33.971Z,99921.97
2022-10-05T10:41:58.872Z,99932.16
2022-10-05T10:45:07.811Z,99940.94
2022-10-05T10:48:01.031Z,99923.25
2022-10-05T10:51:12.810Z,99932.28
2022-10-05T10:54:25.293Z,99924.88
2022-10-05T10:57:08.048Z,99917.91
2022-10-05T11:00:29.606Z,99915.84
2022-10-05T11:03:33.916Z,99915.28
2022-10-05T11:06:37.309Z,99910.97
2022-10-05T11:09:25.950Z,99915.13
2022-10-05T11:12:49.760Z,99911.91
2022-10-05T11:16:04.409Z,99917.66
2022-10-05T11:19:03.686Z,99907.75
2022-10-05T11:21:37.681Z,99902.09
2022-10-05T11:24:44.032Z,99892.69
2022-10-05T11:27:43.271Z,99887.81
2022-10-05T11:30:37.885Z,99894.38
2022-10-05T11:33:52.045Z,99889.88
2022-10-05T11:37:00.153Z,99897.97
2022-10-05T11:39:44.753Z,99887.66
2022-10-05T11:43:04.786Z,99881.75
2022-10-05T11:45:54.957Z,99884.22
2022-10-05T11:48:47.050Z,99878.03
2022-10-05T11:51:53.312Z,99876.53
2022-10-05T11:55:10.901Z,99874.22
2022-10-05T11:57:51.595Z,99863.41
2022-10-05T12:00:23.263Z,99855.81
2022-10-05T12:03:26.756Z,99849.81
2022-10-05T12:06:17.342Z,99844.44
2022-10-05T12:09:05.094Z,99845.50
2022-10-05T12:11:57.859Z,99836.00
2022-10-05T12:14:41.201Z,99839.31
2022-10-05T12:17:22.064Z,99839.53
2022-10-05T12:19:56.474Z,99830.59
2022-10-05T12:22:33.143Z,99824.78
2022-10-05T12:25:17.923Z,99829.59
2022-10-05T12:27:50.054Z,99825.78
2022-10-05T12:30:31.106Z,99823.78
2022-10-05T12:33:07.679Z,99821.53
2022-10-05T12:35:49.047Z,99807.91
2022-10-05T12:38:28.519Z,99818.16
2022-10-05T12:41:10.616Z,99817.84
2022-10-05T12:43:57.053Z,99820.19
2022-10-05T12:46:36.520Z,99815.56
2022-10-05T12:49:32.458Z,99814.00
2022-10-05T12:52:03.588Z,99807.09
2022-10-05T12:54:46.873Z,99811.63
2022-10-05T12:57:28.214Z,99804.56
2022-10-05T13:00:07.570Z,99807.28
2022-10-05T13:02:45.279Z,99800.41
2022-10-05T13:05:28.905Z,99802.06
2022-10-05T13:08:10.746Z,99797.06
2022-10-05T13:10:47.578Z,99797.88
2022-10-05T13:13:42.920Z,99796.56
2022-10-05T13:16:28.359Z,99788.13
2022-10-05T13:19:21.504Z,99792.69
2022-10-05T13:22:39.650Z,99789.84
2022-10-05T13:25:27.432Z,99784.25
2022-10-05T13:28:17.119Z,99787.69
2022-10-05T13:30:58.680Z,99777.38
2022-10-05T13:33:46.606Z,99782.19
2022-10-05T13:36:27.616Z,99777.69
2022-10-05T13:39:04.844Z,99782.47
2022-10-05T13:41:54.540Z,99776.97
2022-10-05T13:44:32.732Z,99783.31
2022-10-05T13:47:07.679Z,99776.75
2022-10-05T13:49:53.815Z,99771.28
2022-10-05T13:52:38.796Z,99769.69
2022-10-05T13:55:18.383Z,99771.28
2022-10-05T13:57:59.806Z,99767.53
2022-10-05T14:00:29.656Z,99764.38
2022-10-05T14:03:02.017Z,99761.72
2022-10-05T14:05:32.587Z,99762.53
2022-10-05T14:08:18.541Z,99759.59
2022-10-05T14:10:48.878Z,99759.31
2022-10-05T14:13:23.881Z,99754.78
2022-10-05T14:16:22.349Z,99754.28
2022-10-05T14:18:59.437Z,99759.78
2022-10-05T14:21:32.639Z,99757.13
2022-10-05T14:27:25.685Z,99751.13
2022-10-05T14:29:59.878Z,99750.09
2022-10-05T14:32:32.590Z,99747.91
2022-10-05T14:35:14.577Z,99754.78
2022-10-05T14:37:53.153Z,99742.13
2022-10-05T14:40:32.064Z,99744.78
2022-10-05T14:43:18.652Z,99736.34
2022-10-05T14:45:56.657Z,99739.50
2022-10-05T14:48:28.373Z,99728.91
2022-10-05T14:50:59.526Z,99739.50
2022-10-05T14:53:40.734Z,99735.53
2022-10-05T14:56:39.313Z,99731.09
2022-10-05T14:59:41.192Z,99736.50
2022-10-05T15:02:48.059Z,99729.94
2022-10-05T15:05:24.791Z,99731.22
2022-10-05T15:07:59.637Z,99738.06
2022-10-05T15:10:37.795Z,99734.38
2022-10-05T15:13:14.391Z,99727.19
2022-10-05T15:15:52.036Z,99734.38
2022-10-05T15:18:34.776Z,99731.22
2022-10-05T15:21:26.452Z,99725.69
2022-10-05T15:24:00.740Z,99729.41
2022-10-05T15:26:46.497Z,99724.41
2022-10-05T15:29:47.301Z,99722.34
2022-10-05T15:32:41.706Z,99721.34
2022-10-05T15:36:04.334Z,99722.50
2022-10-05T15:38:41.228Z,99725.09
2022-10-05T15:41:16.384Z,99721.34
2022-10-05T15:44:00.783Z,99726.38
2022-10-05T15:46:36.367Z,99720.28
2022-10-05T15:49:19.791Z,99713.41
2022-10-05T15:52:00.544Z,99712.13
2022-10-05T15:55:13.449Z,99711.91
2022-10-05T15:57:52.229Z,99712.19
2022-10-05T16:00:23.605Z,99708.00
2022-10-05T16:03:05.186Z,99714.84
2022-10-05T16:06:00.090Z,99717.81
2022-10-05T16:08:56.365Z,99715.22
2022-10-05T16:11:43.982Z,99703.09
2022-10-05T16:14:29.413Z,99705.72
2022-10-05T16:17:13.661Z,99702.28
2022-10-05T16:19:57.417Z,99706.00
2022-10-05T16:22:41.129Z,99698.38
2022-10-05T16:25:23.328Z,99706.84
2022-10-05T16:28:10.588Z,99711.34
2022-10-05T16:30:49.427Z,99696.03
2022-10-05T16:33:27.026Z,99702.41
2022-10-05T16:36:12.293Z,99710.63
2022-10-05T16:38:51.800Z,99716.50
2022-10-05T16:41:29.784Z,99715.72
2022-10-05T16:44:12.176Z,99719.22
2022-10-05T16:46:49.723Z,99730.91
2022-10-05T16:49:31.062Z,99730.38
2022-10-05T16:52:05.037Z,99734.13
2022-10-05T16:54:38.103Z,99733.13
2022-10-05T16:57:18.291Z,99742.63
2022-10-05T17:00:24.729Z,99738.47
2022-10-05T17:03:16.532Z,99743.75
2022-10-05T17:06:28.081Z,99752.25
2022-10-05T17:09:21.402Z,99759.72
2022-10-05T17:12:05.183Z,99753.38
2022-10-05T17:14:42.964Z,99755.28
2022-10-05T17:17:37.499Z,99762.97
2022-10-05T17:20:35.424Z,99767.25
2022-10-05T17:23:30.334Z,99758.03
2022-10-05T17:26:28.204Z,99759.41
2022-10-05T17:29:10.353Z,99771.31
2022-10-05T17:32:10.204Z,99774.81
2022-10-05T17:34:40.811Z,99784.38
2022-10-05T17:37:35.909Z,99781.53
2022-10-05T17:40:33.822Z,99784.47
2022-10-05T17:43:25.338Z,99788.19
2022-10-05T17:46:00.598Z,99798.81
2022-10-05T17:49:18.029Z,99803.94
2022-10-05T17:52:25.940Z,99810.06
2022-10-05T17:55:27.942Z,99811.19
2022-10-05T17:58:00.307Z,99814.94
2022-10-05T18:00:43.721Z,99820.78
2022-10-05T18:03:40.964Z,99824.03
2022-10-05T18:06:51.899Z,99825.69
2022-10-05T18:09:54.344Z,99831.03
2022-10-05T18:12:46.305Z,99835.28
2022-10-05T18:15:46.539Z,99838.44
2022-10-05T18:18:38.801Z,99844.84
2022-10-05T18:21:35.920Z,99850.66
2022-10-05T18:24:55.796Z,99856.00
2022-10-05T18:27:46.349Z,99853.91
2022-10-05T18:30:22.311Z,99868.16
2022-10-05T18:33:51.267Z,99877.97
2022-10-05T18:36:40.276Z,99868.19
2022-10-05T18:39:24.076Z,99871.91
2022-10-05T18:42:07.090Z,99884.59
2022-10-05T18:44:41.621Z,99886.44
2022-10-05T18:47:19.360Z,99891.69
2022-10-05T18:50:06.538Z,99896.22
2022-10-05T18:52:53.645Z,99898.88
2022-10-05T18:55:32.980Z,99908.66
2022-10-05T18:58:22.992Z,99902.84
2022-10-05T19:01:21.320Z,99917.38
2022-10-05T19:04:10.356Z,99910.53
2022-10-05T19:06:53.265Z,99911.09
2022-10-05T19:09:40.808Z,99913.19
2022-10-05T19:12:21.894Z,99913.47
2022-10-05T19:15:02.991Z,99918.53
2022-10-05T19:17:53.177Z,99928.53
2022-10-05T19:20:29.104Z,99928.53
2022-10-05T19:23:19.094Z,99939.91
2022-10-05T19:25:55.612Z,99941.47
2022-10-05T19:28:31.468Z,99943.84
2022-10-05T19:31:25.913Z,99946.22
2022-10-05T19:34:10.776Z,99948.34
2022-10-05T19:36:59.879Z,99952.34
2022-10-05T19:39:41.073Z,99956.00
2022-10-05T19:42:46.150Z,99958.91
2022-10-05T19:45:22.947Z,99956.56
2022-10-05T19:48:07.486Z,99959.72
2022-10-05T19:50:39.910Z,99957.88
2022-10-05T19:53:17.210Z,99965.53
2022-10-05T19:55:48.034Z,99961.28
2022-10-05T19:58:23.835Z,99978.72
2022-10-05T20:00:59.821Z,99968.16
2022-10-05T20:03:50.100Z,99977.38
2022-10-05T20:06:39.609Z,99983.19
2022-10-05T20:09:27.072Z,99986.91
2022-10-05T20:12:15.932Z,99989.81
2022-10-05T20:15:26.628Z,99996.97
2022-10-05T20:18:55.349Z,100010.16
2022-10-05T20:21:49.344Z,100001.66
2022-10-05T20:24:51.807Z,100016.72
2022-10-05T20:27:49.239Z,100020.13
2022-10-05T20:30:37.869Z,100026.22
2022-10-05T20:33:27.121Z,100018.31
2022-10-05T20:36:14.489Z,100022.28
2022-10-05T20:39:01.757Z,100018.06
2022-10-05T20:41:48.965Z,100022.81
2022-10-05T20:44:38.229Z,100026.78
2022-10-05T20:47:25.954Z,100028.88
2022-10-05T20:50:13.521Z,100039.97
2022-10-05T20:53:01.044Z,100044.72
2022-10-05T20:55:48.545Z,100054.75
2022-10-05T20:58:35.985Z,100051.06
2022-10-05T21:01:26.832Z,100052.13
2022-10-05T21:04:14.830Z,100059.50
2022-10-05T21:07:03.748Z,100054.22
2022-10-05T21:09:52.181Z,100069.25
2022-10-05T21:12:39.624Z,100066.88
2022-10-05T21:15:27.156Z,100068.47
2022-10-05T21:18:17.197Z,100078.25
2022-10-05T21:21:04.592Z,100082.47
2022-10-05T21:23:52.089Z,100080.88
2022-10-05T21:26:39.385Z,100078.50
2022-10-05T21:29:26.862Z,100086.69
2022-10-05T21:32:14.452Z,100078.00
2022-10-05T21:35:03.233Z,100085.38
2022-10-05T21:37:50.964Z,100094.84
2022-10-05T21:40:38.341Z,100092.75
2022-10-05T21:43:26.518Z,100103.56
2022-10-05T21:46:18.533Z,100108.03
2022-10-05T21:49:08.234Z,100108.03
2022-10-05T21:51:57.523Z,100115.66
2022-10-05T21:54:44.864Z,100112.25
2022-10-05T21:57:32.380Z,100116.47
2022-10-05T22:00:20.586Z,100111.72
2022-10-05T22:03:08.284Z,100121.22
2022-10-05T22:05:55.807Z,100118.84
2022-10-05T22:08:45.190Z,100125.69
2022-10-05T22:11:33.635Z,100123.84
2022-10-05T22:14:21.053Z,100133.84
2022-10-05T22:17:13.976Z,100139.13
2022-10-05T22:20:02.155Z,100140.72
2022-10-05T22:22:49.420Z,100138.59
2022-10-05T22:25:38.469Z,100145.75
2022-10-05T22:28:26.319Z,100157.56
2022-10-05T22:31:14.992Z,100168.91
2022-10-05T22:34:02.513Z,100160.19
2022-10-05T22:36:50.364Z,100156.00
2022-10-05T22:39:37.823Z,100155.19
2022-10-05T22:42:26.328Z,100164.69
2022-10-05T22:45:14.301Z,100168.09
2022-10-05T22:48:01.600Z,100169.44
2022-10-05T22:50:49.401Z,100158.91
2022-10-05T22:53:36.720Z,100160.75
2022-10-05T22:56:24.285Z,100159.16
2022-10-05T22:59:12.797Z,100162.31
2022-10-05T23:02:00.509Z,100162.81
2022-10-05T23:04:47.912Z,100166.50
2022-10-05T23:07:40.180Z,100155.97
2022-10-05T23:10:27.807Z,100164.91
2022-10-05T23:13:16.322Z,100159.63
2022-10-05T23:16:10.583Z,100163.84
2022-10-05T23:18:58.415Z,100166.47
2022-10-05T23:21:46.093Z,100172.25
2022-10-05T23:24:33.930Z,100173.28
2022-10-05T23:27:21.736Z,100180.13
2022-10-05T23:30:12.049Z,100183.81
2022-10-05T23:33:00.672Z,100191.44
2022-10-05T23:35:48.131Z,100201.69
2022-10-05T23:38:36.401Z,100194.03
2022-10-05T23:41:24.979Z,100195.88
2022-10-05T23:44:12.588Z,100202.75
2022-10-05T23:46:59.891Z,100199.84
2022-10-05T23:49:48.453Z,100197.72
2022-10-05T23:52:36.484Z,100196.72
2022-10-05T23:55:24.037Z,100209.88
2022-10-05T23:58:11.991Z,100203.81
